createdAt,value
2022-10-28T00:01:07.417Z,8.32
2022-10-28T00:03:38.185Z,8.80
2022-10-28T00:06:06.265Z,8.63
2022-10-28T00:08:33.680Z,8.15
2022-10-28T00:11:04.774Z,8.38
2022-10-28T00:13:33.529Z,7.90
2022-10-28T00:16:08.092Z,7.40
2022-10-28T00:18:35.690Z,7.95
2022-10-28T00:21:03.687Z,8.27
2022-10-28T00:23:31.160Z,8.25
2022-10-28T00:26:04.471Z,7.18
2022-10-28T00:28:33.176Z,7.75
2022-10-28T00:31:04.119Z,7.22
2022-10-28T00:33:31.442Z,7.28
2022-10-28T00:36:07.525Z,6.95
2022-10-28T00:38:34.874Z,7.32
2022-10-28T00:41:02.256Z,7.25
2022-10-28T00:43:38.048Z,7.90
2022-10-28T00:46:07.778Z,6.97
2022-10-28T00:48:35.103Z,7.45
2022-10-28T00:51:03.542Z,6.70
2022-10-28T00:53:32.925Z,7.60
2022-10-28T00:56:01.291Z,7.63
2022-10-28T00:58:29.090Z,7.32
2022-10-28T01:00:57.844Z,7.47
2022-10-28T01:03:25.170Z,7.80
2022-10-28T01:05:53.546Z,7.75
2022-10-28T01:08:21.983Z,7.60
2022-10-28T01:10:59.966Z,7.78
2022-10-28T01:13:33.257Z,8.20
2022-10-28T01:16:04.938Z,7.22
2022-10-28T01:18:36.172Z,7.60
2022-10-28T01:21:21.416Z,8.02
2022-10-28T01:26:30.849Z,8.20
2022-10-28T01:29:18.817Z,8.00
2022-10-28T01:31:50.864Z,7.25
2022-10-28T01:34:23.146Z,6.80
2022-10-28T01:36:55.724Z,7.68
2022-10-28T01:39:26.653Z,7.60
2022-10-28T01:41:57.453Z,6.95
2022-10-28T01:44:27.945Z,7.78
2022-10-28T01:47:01.123Z,7.43
2022-10-28T01:49:31.659Z,7.78
2022-10-28T01:52:01.852Z,9.13
2022-10-28T01:54:29.993Z,7.50
2022-10-28T01:56:58.597Z,7.53
2022-10-28T01:59:27.443Z,7.45
2022-10-28T02:01:54.917Z,7.80
2022-10-28T02:04:24.020Z,7.50
2022-10-28T02:06:52.944Z,6.70
2022-10-28T02:09:25.568Z,7.07
2022-10-28T02:12:11.179Z,7.07
2022-10-28T02:14:48.819Z,8.05
2022-10-28T02:17:20.715Z,7.63
2022-10-28T02:19:51.534Z,7.40
2022-10-28T02:22:20.948Z,7.30
2022-10-28T02:24:51.805Z,6.45
2022-10-28T02:27:30.370Z,7.00
2022-10-28T02:30:01.585Z,7.72
2022-10-28T02:32:30.881Z,7.13
2022-10-28T02:35:01.298Z,7.50
2022-10-28T02:37:29.730Z,7.70
2022-10-28T02:39:58.855Z,8.45
2022-10-28T02:42:28.352Z,7.57
2022-10-28T02:44:59.663Z,7.10
2022-10-28T02:47:29.843Z,7.82
2022-10-28T02:50:00.257Z,7.60
2022-10-28T02:52:29.054Z,8.43
2022-10-28T02:54:57.455Z,7.30
2022-10-28T02:57:26.186Z,8.32
2022-10-28T02:59:54.135Z,7.25
2022-10-28T03:02:21.489Z,6.53
2022-10-28T03:04:48.914Z,7.30
2022-10-28T03:07:17.645Z,7.30
2022-10-28T03:09:44.992Z,7.72
2022-10-28T03:12:12.413Z,7.00
2022-10-28T03:14:39.750Z,7.32
2022-10-28T03:17:07.631Z,8.00
2022-10-28T03:19:35.205Z,8.48
2022-10-28T03:22:02.533Z,7.47
2022-10-28T03:24:31.175Z,8.00
2022-10-28T03:26:58.721Z,7.65
2022-10-28T03:29:26.034Z,7.32
2022-10-28T03:31:53.382Z,6.40
2022-10-28T03:34:20.693Z,7.63
2022-10-28T03:36:47.992Z,7.53
2022-10-28T03:39:15.405Z,7.10
2022-10-28T03:41:44.060Z,7.15
2022-10-28T03:44:11.403Z,7.60
2022-10-28T03:46:38.917Z,7.05
2022-10-28T03:49:06.281Z,6.55
2022-10-28T03:51:33.589Z,6.85
2022-10-28T03:54:00.941Z,6.72
2022-10-28T03:56:28.267Z,7.25
2022-10-28T03:58:56.921Z,7.13
2022-10-28T04:01:24.468Z,7.15
2022-10-28T04:03:51.819Z,6.90
2022-10-28T04:06:19.153Z,7.05
2022-10-28T04:08:46.458Z,6.18
2022-10-28T04:11:13.768Z,5.60
2022-10-28T04:13:41.087Z,6.22
2022-10-28T04:16:09.763Z,6.32
2022-10-28T04:18:37.121Z,6.65
2022-10-28T04:21:05.094Z,6.25
2022-10-28T04:23:32.443Z,5.75
2022-10-28T04:25:59.738Z,5.82
2022-10-28T04:28:27.090Z,5.55
2022-10-28T04:30:54.395Z,6.43
2022-10-28T04:33:23.049Z,6.18
2022-10-28T04:35:50.487Z,7.07
2022-10-28T04:38:17.853Z,6.60
2022-10-28T04:40:47.693Z,5.35
2022-10-28T04:43:14.978Z,6.50
2022-10-28T04:45:42.362Z,7.75
2022-10-28T04:48:10.120Z,6.55
2022-10-28T04:50:38.742Z,7.57
2022-10-28T04:53:06.083Z,5.85
2022-10-28T04:55:33.488Z,5.97
2022-10-28T04:58:01.529Z,6.88
2022-10-28T05:00:29.973Z,6.78
2022-10-28T05:02:57.909Z,6.20
2022-10-28T05:05:25.798Z,7.25
2022-10-28T05:07:54.744Z,6.20
2022-10-28T05:10:22.473Z,6.05
2022-10-28T05:12:49.803Z,6.72
2022-10-28T05:15:17.251Z,5.80
2022-10-28T05:17:45.256Z,6.57
2022-10-28T05:20:13.693Z,6.78
2022-10-28T05:22:45.950Z,7.10
2022-10-28T05:25:14.755Z,6.93
2022-10-28T05:27:42.128Z,6.07
2022-10-28T05:30:10.322Z,6.93
2022-10-28T05:32:37.721Z,6.60
2022-10-28T05:35:05.294Z,7.78
2022-10-28T05:37:32.613Z,7.40
2022-10-28T05:39:59.952Z,6.85
2022-10-28T05:42:28.587Z,6.95
2022-10-28T05:44:55.953Z,7.47
2022-10-28T05:47:23.288Z,6.97
2022-10-28T05:49:50.582Z,8.25
2022-10-28T05:52:17.933Z,7.18
2022-10-28T05:54:45.262Z,7.72
2022-10-28T05:57:12.564Z,8.02
2022-10-28T05:59:41.196Z,7.80
2022-10-28T06:02:11.037Z,7.95
2022-10-28T06:04:38.358Z,7.78
2022-10-28T06:07:05.654Z,7.70
2022-10-28T06:09:32.999Z,7.53
2022-10-28T06:11:58.754Z,9.15
2022-10-28T06:14:26.102Z,7.15
2022-10-28T06:16:54.807Z,7.68
2022-10-28T06:19:22.323Z,8.18
2022-10-28T06:21:49.868Z,7.80
2022-10-28T06:24:17.154Z,7.90
2022-10-28T06:26:44.514Z,7.40
2022-10-28T06:29:12.186Z,7.93
2022-10-28T06:31:39.626Z,7.55
2022-10-28T06:34:09.266Z,7.93
2022-10-28T06:36:36.627Z,7.75
2022-10-28T06:39:04.337Z,8.30
2022-10-28T06:41:31.944Z,8.45
2022-10-28T06:43:59.399Z,8.68
2022-10-28T06:46:26.958Z,7.88
2022-10-28T06:48:55.852Z,8.18
2022-10-28T06:51:24.519Z,8.50
2022-10-28T06:53:52.322Z,8.05
2022-10-28T06:56:19.697Z,8.68
2022-10-28T06:58:50.693Z,8.93
2022-10-28T07:01:18.481Z,8.75
2022-10-28T07:03:46.050Z,8.43
2022-10-28T07:08:43.446Z,8.05
2022-10-28T07:11:10.763Z,7.65
2022-10-28T07:13:38.106Z,7.53
2022-10-28T07:16:06.103Z,7.53
2022-10-28T07:18:33.408Z,7.00
2022-10-28T07:21:01.119Z,5.93
2022-10-28T07:23:28.826Z,6.60
2022-10-28T07:25:57.527Z,6.85
2022-10-28T07:28:25.318Z,7.50
2022-10-28T07:30:52.798Z,6.53
2022-10-28T07:33:20.177Z,6.53
2022-10-28T07:35:47.462Z,6.07
2022-10-28T07:38:14.811Z,6.78
2022-10-28T07:40:42.132Z,7.00
2022-10-28T07:43:10.782Z,7.30
2022-10-28T07:45:38.615Z,6.90
2022-10-28T07:48:06.331Z,6.50
2022-10-28T07:50:33.695Z,7.13
2022-10-28T07:53:01.450Z,6.95
2022-10-28T07:55:28.839Z,6.78
2022-10-28T07:57:56.585Z,7.00
2022-10-28T08:00:25.524Z,6.43
2022-10-28T08:02:52.836Z,7.60
2022-10-28T08:05:20.251Z,6.50
2022-10-28T08:07:47.866Z,6.28
2022-10-28T08:10:15.328Z,7.20
2022-10-28T08:12:42.798Z,6.90
2022-10-28T08:15:10.657Z,6.22
2022-10-28T08:17:39.535Z,6.60
2022-10-28T08:20:07.341Z,6.72
2022-10-28T08:22:34.609Z,6.40
2022-10-28T08:25:01.965Z,7.05
2022-10-28T08:27:29.270Z,7.18
2022-10-28T08:29:56.633Z,7.00
2022-10-28T08:32:24.006Z,6.35
2022-10-28T08:34:52.674Z,7.45
2022-10-28T08:37:19.999Z,6.90
2022-10-28T08:39:47.359Z,7.45
2022-10-28T08:42:23.946Z,7.40
2022-10-28T08:44:57.933Z,7.38
2022-10-28T08:47:31.887Z,7.27
2022-10-28T08:50:03.652Z,7.47
2022-10-28T08:52:32.895Z,6.22
2022-10-28T08:55:03.318Z,6.82
2022-10-28T08:57:35.571Z,6.93
2022-10-28T09:00:03.361Z,8.30
2022-10-28T09:02:33.985Z,6.90
2022-10-28T09:05:05.668Z,6.55
2022-10-28T09:07:37.049Z,6.50
2022-10-28T09:10:05.501Z,6.72
2022-10-28T09:12:37.747Z,6.25
2022-10-28T09:15:10.703Z,6.13
2022-10-28T09:17:40.348Z,6.38
2022-10-28T09:20:13.306Z,7.13
2022-10-28T09:22:44.297Z,5.65
2022-10-28T09:25:16.852Z,5.88
2022-10-28T09:27:49.673Z,6.05
2022-10-28T09:30:25.842Z,5.95
2022-10-28T09:32:57.250Z,6.28
2022-10-28T09:35:27.667Z,6.03
2022-10-28T09:37:57.711Z,6.03
2022-10-28T09:40:26.109Z,5.78
2022-10-28T09:43:05.420Z,6.35
2022-10-28T09:45:34.312Z,5.90
2022-10-28T09:48:04.037Z,5.95
2022-10-28T09:50:33.805Z,5.95
2022-10-28T09:53:05.315Z,6.00
2022-10-28T09:55:33.285Z,6.38
2022-10-28T09:58:00.665Z,6.53
2022-10-28T10:00:27.975Z,6.05
2022-10-28T10:02:57.807Z,5.93
2022-10-28T10:05:25.853Z,5.50
2022-10-28T10:07:56.521Z,5.82
2022-10-28T10:10:25.655Z,5.93
2022-10-28T10:12:53.930Z,6.03
2022-10-28T10:15:27.173Z,5.70
2022-10-28T10:17:56.374Z,5.53
2022-10-28T10:20:23.665Z,5.88
2022-10-28T10:22:51.170Z,5.68
2022-10-28T10:25:25.074Z,5.65
2022-10-28T10:27:53.411Z,5.25
2022-10-28T10:30:23.327Z,5.40
2022-10-28T10:32:50.990Z,5.80
2022-10-28T10:35:20.803Z,6.07
2022-10-28T10:37:48.447Z,5.35
2022-10-28T10:40:21.972Z,5.88
2022-10-28T10:43:09.731Z,6.05
2022-10-28T10:45:38.193Z,5.70
2022-10-28T10:48:15.161Z,5.65
2022-10-28T10:50:44.637Z,5.47
2022-10-28T10:53:23.601Z,5.65
2022-10-28T10:55:52.060Z,4.53
2022-10-28T10:58:22.105Z,4.85
2022-10-28T11:00:50.685Z,4.25
2022-10-28T11:03:19.789Z,4.47
2022-10-28T11:05:55.163Z,4.93
2022-10-28T11:08:34.725Z,4.22
2022-10-28T11:11:06.258Z,4.32
2022-10-28T11:13:35.403Z,4.30
2022-10-28T11:16:03.109Z,4.40
2022-10-28T11:18:39.882Z,4.60
2022-10-28T11:21:10.932Z,4.38
2022-10-28T11:23:44.562Z,4.13
2022-10-28T11:26:14.495Z,4.60
2022-10-28T11:28:56.194Z,3.75
2022-10-28T11:31:37.958Z,4.82
2022-10-28T11:34:18.170Z,4.57
2022-10-28T11:36:51.074Z,4.28
2022-10-28T11:39:22.301Z,4.47
2022-10-28T11:41:59.365Z,4.28
2022-10-28T11:44:33.836Z,4.20
2022-10-28T11:47:07.221Z,5.15
2022-10-28T11:49:39.375Z,4.45
2022-10-28T11:52:14.102Z,3.28
2022-10-28T11:54:48.460Z,4.13
2022-10-28T11:57:16.738Z,4.00
2022-10-28T12:00:00.565Z,4.50
2022-10-28T12:02:36.394Z,4.20
2022-10-28T12:05:05.506Z,4.10
2022-10-28T12:07:42.581Z,4.60
2022-10-28T12:10:15.116Z,4.70
2022-10-28T12:12:48.715Z,3.80
2022-10-28T12:15:24.410Z,4.05
2022-10-28T12:17:55.136Z,4.20
2022-10-28T12:20:25.180Z,5.05
2022-10-28T12:22:55.262Z,4.25
2022-10-28T12:25:25.462Z,4.32
2022-10-28T12:27:55.024Z,4.30
2022-10-28T12:30:25.587Z,4.82
2022-10-28T12:32:55.701Z,3.58
2022-10-28T12:35:25.613Z,4.13
2022-10-28T12:37:55.518Z,4.15
2022-10-28T12:40:25.449Z,3.45
2022-10-28T12:42:56.123Z,4.43
2022-10-28T12:45:25.273Z,4.15
2022-10-28T12:47:56.284Z,4.45
2022-10-28T12:50:27.675Z,5.25
2022-10-28T12:52:56.966Z,4.22
2022-10-28T12:55:30.703Z,4.55
2022-10-28T12:58:00.472Z,4.30
2022-10-28T13:00:30.495Z,4.65
2022-10-28T13:03:01.271Z,4.38
2022-10-28T13:05:30.464Z,4.50
2022-10-28T13:08:13.446Z,3.38
2022-10-28T13:10:43.355Z,4.07
2022-10-28T13:13:17.806Z,5.25
2022-10-28T13:15:55.243Z,4.50
2022-10-28T13:18:35.794Z,5.20
2022-10-28T13:21:06.914Z,4.82
2022-10-28T13:23:40.467Z,4.45
2022-10-28T13:26:10.878Z,4.40
2022-10-28T13:28:46.560Z,4.40
2022-10-28T13:31:15.989Z,3.70
2022-10-28T13:33:48.604Z,4.20
2022-10-28T13:36:20.398Z,3.85
2022-10-28T13:38:55.356Z,4.35
2022-10-28T13:41:30.652Z,4.15
2022-10-28T13:43:59.397Z,4.25
2022-10-28T13:46:45.226Z,4.00
2022-10-28T13:49:27.420Z,3.70
2022-10-28T13:52:00.956Z,4.20
2022-10-28T13:54:31.379Z,4.70
2022-10-28T13:57:03.897Z,4.30
2022-10-28T13:59:33.504Z,4.22
2022-10-28T14:02:32.674Z,4.55
2022-10-28T14:04:57.503Z,4.10
2022-10-28T14:09:58.303Z,3.83
2022-10-28T14:12:27.834Z,4.05
2022-10-28T14:14:58.498Z,4.15
2022-10-28T14:17:28.130Z,4.50
2022-10-28T14:19:55.705Z,4.57
2022-10-28T14:22:30.530Z,4.35
2022-10-28T14:27:30.527Z,4.35
2022-10-28T14:30:16.437Z,4.30
2022-10-28T14:32:46.320Z,4.30
2022-10-28T14:35:21.493Z,4.70
2022-10-28T14:38:03.700Z,4.82
2022-10-28T14:40:35.934Z,4.95
2022-10-28T14:43:22.883Z,4.25
2022-10-28T14:46:00.624Z,4.25
2022-10-28T14:48:41.286Z,4.80
2022-10-28T14:51:10.632Z,5.07
2022-10-28T14:53:38.267Z,4.50
2022-10-28T14:56:07.783Z,4.80
2022-10-28T14:58:37.546Z,4.35
2022-10-28T15:01:15.736Z,5.30
2022-10-28T15:03:43.826Z,4.95
2022-10-28T15:06:37.118Z,5.47
2022-10-28T15:09:06.206Z,5.75
2022-10-28T15:11:34.180Z,5.10
2022-10-28T15:14:13.047Z,4.72
2022-10-28T15:16:48.869Z,5.60
2022-10-28T15:19:19.084Z,5.18
2022-10-28T15:22:00.415Z,5.50
2022-10-28T15:24:27.837Z,5.35
2022-10-28T15:26:55.614Z,5.05
2022-10-28T15:29:23.074Z,4.43
2022-10-28T15:32:13.538Z,4.47
2022-10-28T15:34:41.466Z,4.60
2022-10-28T15:37:08.857Z,4.72
2022-10-28T15:39:36.594Z,4.53
2022-10-28T15:42:04.246Z,4.50
2022-10-28T15:44:33.207Z,4.57
2022-10-28T15:47:01.115Z,4.55
2022-10-28T15:49:37.510Z,5.32
2022-10-28T15:52:31.436Z,5.18
2022-10-28T15:54:59.506Z,5.88
2022-10-28T15:57:27.683Z,5.82
2022-10-28T16:00:13.961Z,6.03
2022-10-28T16:02:41.759Z,5.32
2022-10-28T16:05:26.990Z,5.78
2022-10-28T16:07:56.940Z,4.90
2022-10-28T16:10:24.729Z,5.65
2022-10-28T16:12:52.130Z,5.85
2022-10-28T16:15:19.437Z,5.35
2022-10-28T16:17:47.039Z,5.18
2022-10-28T16:20:18.531Z,5.18
2022-10-28T16:22:46.745Z,5.47
2022-10-28T16:25:17.149Z,5.07
2022-10-28T16:27:44.466Z,4.63
2022-10-28T16:30:12.253Z,4.95
2022-10-28T16:32:40.625Z,5.75
2022-10-28T16:35:14.068Z,6.30
2022-10-28T16:37:44.721Z,5.72
2022-10-28T16:40:30.995Z,4.82
2022-10-28T16:43:01.624Z,5.35
2022-10-28T16:45:29.053Z,4.95
2022-10-28T16:47:56.719Z,5.65
2022-10-28T16:50:24.217Z,5.13
2022-10-28T16:52:52.755Z,5.20
2022-10-28T16:55:20.073Z,5.00
2022-10-28T16:57:47.449Z,4.95
2022-10-28T17:00:16.539Z,5.30
2022-10-28T17:02:43.899Z,4.80
2022-10-28T17:05:16.852Z,4.85
2022-10-28T17:07:44.218Z,4.95
2022-10-28T17:10:12.409Z,5.70
2022-10-28T17:12:39.742Z,5.82
2022-10-28T17:15:07.511Z,5.20
2022-10-28T17:17:36.655Z,4.90
2022-10-28T17:20:04.304Z,5.05
2022-10-28T17:22:31.667Z,5.68
2022-10-28T17:24:58.977Z,5.53
2022-10-28T17:27:26.471Z,5.75
2022-10-28T17:29:53.920Z,5.68
2022-10-28T17:32:21.324Z,4.97
2022-10-28T17:34:49.980Z,5.78
2022-10-28T17:37:17.331Z,5.75
2022-10-28T17:39:44.806Z,5.45
2022-10-28T17:42:12.239Z,5.28
2022-10-28T17:44:39.711Z,5.90
2022-10-28T17:47:07.061Z,6.00
2022-10-28T17:49:36.279Z,5.50
2022-10-28T17:52:04.963Z,6.65
2022-10-28T17:54:32.318Z,5.75
2022-10-28T17:56:59.775Z,5.75
2022-10-28T17:59:27.127Z,6.35
2022-10-28T18:01:55.217Z,5.20
2022-10-28T18:04:26.121Z,5.85
2022-10-28T18:06:54.405Z,6.28
2022-10-28T18:09:23.330Z,6.22
2022-10-28T18:11:50.921Z,5.63
2022-10-28T18:14:20.012Z,6.47
2022-10-28T18:16:50.019Z,6.75
2022-10-28T18:19:17.430Z,6.38
2022-10-28T18:21:45.362Z,7.40
2022-10-28T18:24:12.886Z,6.28
2022-10-28T18:26:41.809Z,5.88
2022-10-28T18:29:12.914Z,6.45
2022-10-28T18:31:43.731Z,6.68
2022-10-28T18:34:11.454Z,6.70
2022-10-28T18:36:38.849Z,6.00
2022-10-28T18:39:07.445Z,7.20
2022-10-28T18:41:35.989Z,7.25
2022-10-28T18:44:05.596Z,6.43
2022-10-28T18:46:33.799Z,7.43
2022-10-28T18:51:33.579Z,6.32
2022-10-28T18:54:00.910Z,6.07
2022-10-28T18:56:29.564Z,6.90
2022-10-28T18:58:57.242Z,7.53
2022-10-28T19:01:27.340Z,7.40
2022-10-28T19:03:55.724Z,7.55
2022-10-28T19:06:23.919Z,7.13
2022-10-28T19:08:52.327Z,7.53
2022-10-28T19:11:20.002Z,8.27
2022-10-28T19:13:47.465Z,10.98
2022-10-28T19:16:14.840Z,8.27
2022-10-28T19:18:43.519Z,8.07
2022-10-28T19:21:12.597Z,8.60
2022-10-28T19:23:40.415Z,9.32
2022-10-28T19:26:08.189Z,8.82
2022-10-28T19:28:39.618Z,7.95
2022-10-28T19:31:07.827Z,8.02
2022-10-28T19:33:35.449Z,7.72
2022-10-28T19:36:05.529Z,8.02
2022-10-28T19:38:33.218Z,8.32
2022-10-28T19:41:04.456Z,8.95
2022-10-28T19:43:31.831Z,9.18
2022-10-28T19:46:05.592Z,9.80
2022-10-28T19:48:32.914Z,9.15
2022-10-28T19:51:00.215Z,8.50
2022-10-28T19:53:28.897Z,9.25
2022-10-28T19:55:56.755Z,7.38
2022-10-28T19:58:24.136Z,7.80
2022-10-28T20:00:51.463Z,8.10
2022-10-28T20:03:18.748Z,7.60
2022-10-28T20:05:46.053Z,8.70
2022-10-28T20:08:14.207Z,9.82
2022-10-28T20:10:42.881Z,8.07
2022-10-28T20:13:10.519Z,8.50
2022-10-28T20:15:37.821Z,8.63
2022-10-28T20:18:05.293Z,8.50
2022-10-28T20:20:32.598Z,8.63
2022-10-28T20:23:00.182Z,8.07
2022-10-28T20:25:27.811Z,7.90
2022-10-28T20:27:56.892Z,7.68
2022-10-28T20:30:24.477Z,6.82
2022-10-28T20:32:55.621Z,7.30
2022-10-28T20:35:23.255Z,6.70
2022-10-28T20:37:54.032Z,7.63
2022-10-28T20:40:21.871Z,6.97
2022-10-28T20:42:49.303Z,6.97
2022-10-28T20:45:18.005Z,6.75
2022-10-28T20:47:45.367Z,7.03
2022-10-28T20:50:12.658Z,6.72
2022-10-28T20:52:40.939Z,6.75
2022-10-28T20:55:08.548Z,7.18
2022-10-28T20:57:35.847Z,7.40
2022-10-28T21:00:03.189Z,7.47
2022-10-28T21:02:31.993Z,6.75
2022-10-28T21:04:59.547Z,6.32
2022-10-28T21:07:27.081Z,6.97
2022-10-28T21:09:54.418Z,7.20
2022-10-28T21:12:21.776Z,6.82
2022-10-28T21:14:49.112Z,7.38
2022-10-28T21:17:16.431Z,7.47
2022-10-28T21:19:45.077Z,7.72
2022-10-28T21:22:12.412Z,8.05
2022-10-28T21:24:39.740Z,7.45
2022-10-28T21:27:07.067Z,7.00
2022-10-28T21:29:34.521Z,7.20
2022-10-28T21:32:01.846Z,8.02
2022-10-28T21:34:29.172Z,7.13
2022-10-28T21:36:57.893Z,6.80
2022-10-28T21:39:25.218Z,8.27
2022-10-28T21:41:52.530Z,7.68
2022-10-28T21:44:19.869Z,7.97
2022-10-28T21:46:48.178Z,7.75
2022-10-28T21:49:15.484Z,7.10
2022-10-28T21:51:42.870Z,7.43
2022-10-28T21:54:11.568Z,7.28
2022-10-28T21:56:38.921Z,8.45
2022-10-28T21:59:06.237Z,7.10
2022-10-28T22:01:33.651Z,7.65
2022-10-28T22:04:01.024Z,8.55
2022-10-28T22:06:28.328Z,8.00
2022-10-28T22:08:56.038Z,7.70
2022-10-28T22:11:24.829Z,8.38
2022-10-28T22:13:56.230Z,8.30
2022-10-28T22:16:23.787Z,9.48
2022-10-28T22:18:51.380Z,8.02
2022-10-28T22:21:19.591Z,7.55
2022-10-28T22:23:47.174Z,8.35
2022-10-28T22:26:15.487Z,8.10
2022-10-28T22:28:44.238Z,7.97
2022-10-28T22:31:12.244Z,8.27
2022-10-28T22:33:39.905Z,8.32
2022-10-28T22:36:08.600Z,7.93
2022-10-28T22:38:36.063Z,8.70
2022-10-28T22:41:04.188Z,8.70
2022-10-28T22:43:31.734Z,8.90
2022-10-28T22:46:00.844Z,9.18
2022-10-28T22:48:28.665Z,8.95
2022-10-28T22:50:56.522Z,9.27
2022-10-28T22:53:24.317Z,8.80
2022-10-28T22:55:52.747Z,8.98
2022-10-28T22:58:20.366Z,9.15
2022-10-28T23:00:47.958Z,9.02
2022-10-28T23:03:19.165Z,8.70
2022-10-28T23:05:46.497Z,9.10
2022-10-28T23:08:15.306Z,8.40
2022-10-28T23:10:42.631Z,7.93
2022-10-28T23:13:12.489Z,7.70
2022-10-28T23:15:39.817Z,8.38
2022-10-28T23:18:07.154Z,8.85
2022-10-28T23:20:36.118Z,8.40
2022-10-28T23:23:03.506Z,8.48
2022-10-28T23:25:30.903Z,7.57
2022-10-28T23:27:58.446Z,8.68
2022-10-28T23:30:26.172Z,7.53
2022-10-28T23:32:53.427Z,8.27
2022-10-28T23:35:20.739Z,9.07
2022-10-28T23:37:49.368Z,8.10
2022-10-28T23:40:16.789Z,8.50
2022-10-28T23:42:44.161Z,8.27
2022-10-28T23:45:11.500Z,8.48
2022-10-28T23:47:38.812Z,9.00
2022-10-28T23:50:06.267Z,8.32
2022-10-28T23:52:33.594Z,8.35
2022-10-28T23:55:02.258Z,7.97
2022-10-28T23:57:29.565Z,7.80
2022-10-28T23:59:56.867Z,7.57
